sensor_id;sensor_type;location;lat;lon;timestamp;temperature;humidity
72206;DHT22;60111;48.286;7.812;2024-02-26T00:01:38;8.00;66.20
72206;DHT22;60111;48.286;7.812;2024-02-26T00:04:13;8.00;67.70
72206;DHT22;60111;48.286;7.812;2024-02-26T00:06:46;8.00;65.80
72206;DHT22;60111;48.286;7.812;2024-02-26T00:09:19;8.10;65.50
72206;DHT22;60111;48.286;7.812;2024-02-26T00:11:52;8.10;65.60
72206;DHT22;60111;48.286;7.812;2024-02-26T00:14:25;8.10;66.40
72206;DHT22;60111;48.286;7.812;2024-02-26T00:16:58;8.10;66.90
72206;DHT22;60111;48.286;7.812;2024-02-26T00:19:30;8.10;66.60
72206;DHT22;60111;48.286;7.812;2024-02-26T00:22:03;8.00;66.70
72206;DHT22;60111;48.286;7.812;2024-02-26T00:24:35;8.00;67.50
72206;DHT22;60111;48.286;7.812;2024-02-26T00:27:08;8.00;67.90
72206;DHT22;60111;48.286;7.812;2024-02-26T00:29:40;8.00;67.90
72206;DHT22;60111;48.286;7.812;2024-02-26T00:32:14;8.00;69.00
72206;DHT22;60111;48.286;7.812;2024-02-26T00:34:46;7.90;70.50
72206;DHT22;60111;48.286;7.812;2024-02-26T00:37:19;7.90;70.70
72206;DHT22;60111;48.286;7.812;2024-02-26T00:39:51;7.90;71.30
72206;DHT22;60111;48.286;7.812;2024-02-26T00:42:25;7.90;70.40
72206;DHT22;60111;48.286;7.812;2024-02-26T00:44:58;7.80;71.40
72206;DHT22;60111;48.286;7.812;2024-02-26T00:47:30;7.80;71.60
72206;DHT22;60111;48.286;7.812;2024-02-26T00:50:03;7.70;72.70
72206;DHT22;60111;48.286;7.812;2024-02-26T00:52:36;7.70;72.90
72206;DHT22;60111;48.286;7.812;2024-02-26T00:55:09;7.70;74.60
72206;DHT22;60111;48.286;7.812;2024-02-26T00:57:41;7.60;75.20
72206;DHT22;60111;48.286;7.812;2024-02-26T01:00:14;7.50;75.80
72206;DHT22;60111;48.286;7.812;2024-02-26T01:02:47;7.50;76.00
72206;DHT22;60111;48.286;7.812;2024-02-26T01:05:20;7.50;75.90
72206;DHT22;60111;48.286;7.812;2024-02-26T01:07:52;7.50;76.00
72206;DHT22;60111;48.286;7.812;2024-02-26T01:10:25;7.50;76.80
72206;DHT22;60111;48.286;7.812;2024-02-26T01:12:57;7.50;77.20
72206;DHT22;60111;48.286;7.812;2024-02-26T01:15:30;7.50;77.20
72206;DHT22;60111;48.286;7.812;2024-02-26T01:18:02;7.50;77.20
72206;DHT22;60111;48.286;7.812;2024-02-26T01:20:35;7.50;77.30
72206;DHT22;60111;48.286;7.812;2024-02-26T01:23:08;7.50;77.80
72206;DHT22;60111;48.286;7.812;2024-02-26T01:25:40;7.50;77.90
72206;DHT22;60111;48.286;7.812;2024-02-26T01:28:15;7.40;78.10
72206;DHT22;60111;48.286;7.812;2024-02-26T01:30:48;7.40;78.10
72206;DHT22;60111;48.286;7.812;2024-02-26T01:33:20;7.50;78.30
72206;DHT22;60111;48.286;7.812;2024-02-26T01:35:53;7.50;78.40
72206;DHT22;60111;48.286;7.812;2024-02-26T01:38:25;7.50;78.50
72206;DHT22;60111;48.286;7.812;2024-02-26T01:40:59;7.50;78.50
72206;DHT22;60111;48.286;7.812;2024-02-26T01:43:31;7.50;78.60
72206;DHT22;60111;48.286;7.812;2024-02-26T01:46:04;7.50;78.60
72206;DHT22;60111;48.286;7.812;2024-02-26T01:48:37;7.50;78.70
72206;DHT22;60111;48.286;7.812;2024-02-26T01:51:10;7.50;79.00
72206;DHT22;60111;48.286;7.812;2024-02-26T01:53:44;7.50;78.90
72206;DHT22;60111;48.286;7.812;2024-02-26T01:56:18;7.50;79.00
72206;DHT22;60111;48.286;7.812;2024-02-26T01:58:52;7.40;79.20
72206;DHT22;60111;48.286;7.812;2024-02-26T02:01:27;7.40;79.50
72206;DHT22;60111;48.286;7.812;2024-02-26T02:04:00;7.40;79.40
72206;DHT22;60111;48.286;7.812;2024-02-26T02:06:33;7.40;79.80
72206;DHT22;60111;48.286;7.812;2024-02-26T02:09:06;7.30;80.40
72206;DHT22;60111;48.286;7.812;2024-02-26T02:11:40;7.30;80.90
72206;DHT22;60111;48.286;7.812;2024-02-26T02:14:14;7.30;81.70
72206;DHT22;60111;48.286;7.812;2024-02-26T02:16:47;7.30;82.40
72206;DHT22;60111;48.286;7.812;2024-02-26T02:19:20;7.30;82.40
72206;DHT22;60111;48.286;7.812;2024-02-26T02:21:52;7.20;82.50
72206;DHT22;60111;48.286;7.812;2024-02-26T02:24:25;7.20;82.60
72206;DHT22;60111;48.286;7.812;2024-02-26T02:26:58;7.10;82.90
72206;DHT22;60111;48.286;7.812;2024-02-26T02:29:31;7.10;83.00
72206;DHT22;60111;48.286;7.812;2024-02-26T02:32:04;7.10;83.20
72206;DHT22;60111;48.286;7.812;2024-02-26T02:34:37;7.00;83.30
72206;DHT22;60111;48.286;7.812;2024-02-26T02:37:10;7.00;83.50
72206;DHT22;60111;48.286;7.812;2024-02-26T02:39:43;7.00;83.50
72206;DHT22;60111;48.286;7.812;2024-02-26T02:42:16;7.00;83.20
72206;DHT22;60111;48.286;7.812;2024-02-26T02:44:48;7.00;83.40
72206;DHT22;60111;48.286;7.812;2024-02-26T02:47:21;7.00;83.40
72206;DHT22;60111;48.286;7.812;2024-02-26T02:49:53;7.10;83.70
72206;DHT22;60111;48.286;7.812;2024-02-26T02:52:26;7.10;83.30
72206;DHT22;60111;48.286;7.812;2024-02-26T02:54:59;7.10;83.20
72206;DHT22;60111;48.286;7.812;2024-02-26T02:57:32;7.00;83.40
72206;DHT22;60111;48.286;7.812;2024-02-26T03:00:06;7.10;83.50
72206;DHT22;60111;48.286;7.812;2024-02-26T03:02:38;7.10;83.40
72206;DHT22;60111;48.286;7.812;2024-02-26T03:05:11;7.10;83.20
72206;DHT22;60111;48.286;7.812;2024-02-26T03:07:44;7.10;82.90
72206;DHT22;60111;48.286;7.812;2024-02-26T03:10:17;7.10;82.80
72206;DHT22;60111;48.286;7.812;2024-02-26T03:12:50;7.10;83.00
72206;DHT22;60111;48.286;7.812;2024-02-26T03:15:22;7.10;83.00
72206;DHT22;60111;48.286;7.812;2024-02-26T03:17:55;7.10;82.80
72206;DHT22;60111;48.286;7.812;2024-02-26T03:20:27;7.10;83.00
72206;DHT22;60111;48.286;7.812;2024-02-26T03:23:00;7.10;83.40
72206;DHT22;60111;48.286;7.812;2024-02-26T03:25:33;7.00;83.50
72206;DHT22;60111;48.286;7.812;2024-02-26T03:28:05;7.00;83.60
72206;DHT22;60111;48.286;7.812;2024-02-26T03:30:38;7.00;83.90
72206;DHT22;60111;48.286;7.812;2024-02-26T03:33:11;7.00;84.00
72206;DHT22;60111;48.286;7.812;2024-02-26T03:35:44;6.90;84.50
72206;DHT22;60111;48.286;7.812;2024-02-26T03:38:16;6.90;84.80
72206;DHT22;60111;48.286;7.812;2024-02-26T03:40:49;6.90;85.10
72206;DHT22;60111;48.286;7.812;2024-02-26T03:43:22;7.00;84.70
72206;DHT22;60111;48.286;7.812;2024-02-26T03:45:54;7.10;84.30
72206;DHT22;60111;48.286;7.812;2024-02-26T03:48:27;7.10;84.30
72206;DHT22;60111;48.286;7.812;2024-02-26T03:50:59;7.10;84.50
72206;DHT22;60111;48.286;7.812;2024-02-26T03:53:32;7.00;84.80
72206;DHT22;60111;48.286;7.812;2024-02-26T03:56:05;6.90;85.30
72206;DHT22;60111;48.286;7.812;2024-02-26T03:58:38;6.90;85.60
72206;DHT22;60111;48.286;7.812;2024-02-26T04:01:11;6.90;85.40
72206;DHT22;60111;48.286;7.812;2024-02-26T04:03:44;6.90;85.50
72206;DHT22;60111;48.286;7.812;2024-02-26T04:06:16;6.90;85.80
72206;DHT22;60111;48.286;7.812;2024-02-26T04:08:52;6.80;86.20
72206;DHT22;60111;48.286;7.812;2024-02-26T04:11:25;6.70;86.60
72206;DHT22;60111;48.286;7.812;2024-02-26T04:13:57;6.70;87.00
72206;DHT22;60111;48.286;7.812;2024-02-26T04:16:30;6.70;87.30
72206;DHT22;60111;48.286;7.812;2024-02-26T04:19:02;6.70;87.40
72206;DHT22;60111;48.286;7.812;2024-02-26T04:21:35;6.70;87.50
72206;DHT22;60111;48.286;7.812;2024-02-26T04:24:08;6.70;87.50
72206;DHT22;60111;48.286;7.812;2024-02-26T04:26:40;6.70;87.40
72206;DHT22;60111;48.286;7.812;2024-02-26T04:29:14;6.70;87.10
72206;DHT22;60111;48.286;7.812;2024-02-26T04:31:47;6.80;86.60
72206;DHT22;60111;48.286;7.812;2024-02-26T04:34:19;6.80;86.50
72206;DHT22;60111;48.286;7.812;2024-02-26T04:36:52;6.70;86.50
72206;DHT22;60111;48.286;7.812;2024-02-26T04:39:25;6.80;86.40
72206;DHT22;60111;48.286;7.812;2024-02-26T04:41:57;6.70;86.60
72206;DHT22;60111;48.286;7.812;2024-02-26T04:44:30;6.70;86.60
72206;DHT22;60111;48.286;7.812;2024-02-26T04:47:03;6.70;86.70
72206;DHT22;60111;48.286;7.812;2024-02-26T04:49:35;6.70;86.70
72206;DHT22;60111;48.286;7.812;2024-02-26T04:52:08;6.70;86.70
72206;DHT22;60111;48.286;7.812;2024-02-26T04:54:41;6.80;86.70
72206;DHT22;60111;48.286;7.812;2024-02-26T04:57:14;6.70;87.00
72206;DHT22;60111;48.286;7.812;2024-02-26T04:59:48;6.70;87.10
72206;DHT22;60111;48.286;7.812;2024-02-26T05:02:20;6.80;87.30
72206;DHT22;60111;48.286;7.812;2024-02-26T05:04:53;6.70;87.50
72206;DHT22;60111;48.286;7.812;2024-02-26T05:07:25;6.70;87.70
72206;DHT22;60111;48.286;7.812;2024-02-26T05:09:58;6.70;87.90
72206;DHT22;60111;48.286;7.812;2024-02-26T05:12:31;6.70;87.90
72206;DHT22;60111;48.286;7.812;2024-02-26T05:15:05;6.70;87.80
72206;DHT22;60111;48.286;7.812;2024-02-26T05:17:38;6.70;87.90
72206;DHT22;60111;48.286;7.812;2024-02-26T05:20:11;6.70;87.80
72206;DHT22;60111;48.286;7.812;2024-02-26T05:22:44;6.70;87.90
72206;DHT22;60111;48.286;7.812;2024-02-26T05:25:17;6.70;87.90
72206;DHT22;60111;48.286;7.812;2024-02-26T05:27:50;6.70;88.20
72206;DHT22;60111;48.286;7.812;2024-02-26T05:30:22;6.80;88.30
72206;DHT22;60111;48.286;7.812;2024-02-26T05:32:55;6.80;88.60
72206;DHT22;60111;48.286;7.812;2024-02-26T05:35:27;6.80;88.70
72206;DHT22;60111;48.286;7.812;2024-02-26T05:38:00;6.90;88.30
72206;DHT22;60111;48.286;7.812;2024-02-26T05:40:33;6.90;88.00
72206;DHT22;60111;48.286;7.812;2024-02-26T05:43:05;6.90;87.90
72206;DHT22;60111;48.286;7.812;2024-02-26T05:45:38;6.90;87.70
72206;DHT22;60111;48.286;7.812;2024-02-26T05:48:11;7.00;87.60
72206;DHT22;60111;48.286;7.812;2024-02-26T05:50:49;7.10;87.40
72206;DHT22;60111;48.286;7.812;2024-02-26T05:53:18;7.20;86.70
72206;DHT22;60111;48.286;7.812;2024-02-26T05:55:51;7.10;86.90
72206;DHT22;60111;48.286;7.812;2024-02-26T05:58:23;7.00;87.40
72206;DHT22;60111;48.286;7.812;2024-02-26T06:00:56;7.00;87.40
72206;DHT22;60111;48.286;7.812;2024-02-26T06:03:29;6.90;87.50
72206;DHT22;60111;48.286;7.812;2024-02-26T06:06:02;6.90;87.80
72206;DHT22;60111;48.286;7.812;2024-02-26T06:08:34;6.80;88.10
72206;DHT22;60111;48.286;7.812;2024-02-26T06:11:07;6.80;88.40
72206;DHT22;60111;48.286;7.812;2024-02-26T06:13:40;6.90;88.10
72206;DHT22;60111;48.286;7.812;2024-02-26T06:16:12;6.80;88.20
72206;DHT22;60111;48.286;7.812;2024-02-26T06:18:45;6.70;88.50
72206;DHT22;60111;48.286;7.812;2024-02-26T06:21:18;6.70;88.70
72206;DHT22;60111;48.286;7.812;2024-02-26T06:23:50;6.70;88.40
72206;DHT22;60111;48.286;7.812;2024-02-26T06:26:23;6.60;88.70
72206;DHT22;60111;48.286;7.812;2024-02-26T06:28:56;6.60;88.60
72206;DHT22;60111;48.286;7.812;2024-02-26T06:31:28;6.60;88.80
72206;DHT22;60111;48.286;7.812;2024-02-26T06:34:01;6.50;88.90
72206;DHT22;60111;48.286;7.812;2024-02-26T06:36:35;6.50;89.00
72206;DHT22;60111;48.286;7.812;2024-02-26T06:39:07;6.50;89.00
72206;DHT22;60111;48.286;7.812;2024-02-26T06:41:42;6.50;89.00
72206;DHT22;60111;48.286;7.812;2024-02-26T06:44:14;6.50;89.20
72206;DHT22;60111;48.286;7.812;2024-02-26T06:46:47;6.60;89.10
72206;DHT22;60111;48.286;7.812;2024-02-26T06:49:20;6.60;88.80
72206;DHT22;60111;48.286;7.812;2024-02-26T06:51:53;6.60;88.90
72206;DHT22;60111;48.286;7.812;2024-02-26T06:54:25;6.60;89.20
72206;DHT22;60111;48.286;7.812;2024-02-26T06:56:58;6.60;89.30
72206;DHT22;60111;48.286;7.812;2024-02-26T06:59:31;6.60;89.50
72206;DHT22;60111;48.286;7.812;2024-02-26T07:02:03;6.60;89.60
72206;DHT22;60111;48.286;7.812;2024-02-26T07:04:36;6.60;89.70
72206;DHT22;60111;48.286;7.812;2024-02-26T07:07:09;6.60;89.70
72206;DHT22;60111;48.286;7.812;2024-02-26T07:09:42;6.60;89.60
72206;DHT22;60111;48.286;7.812;2024-02-26T07:12:15;6.60;89.80
72206;DHT22;60111;48.286;7.812;2024-02-26T07:14:49;6.60;89.90
72206;DHT22;60111;48.286;7.812;2024-02-26T07:17:22;6.50;90.10
72206;DHT22;60111;48.286;7.812;2024-02-26T07:19:54;6.60;90.20
72206;DHT22;60111;48.286;7.812;2024-02-26T07:22:27;6.60;90.40
72206;DHT22;60111;48.286;7.812;2024-02-26T07:24:59;6.60;90.50
72206;DHT22;60111;48.286;7.812;2024-02-26T07:27:32;6.70;90.60
72206;DHT22;60111;48.286;7.812;2024-02-26T07:30:05;6.70;90.70
72206;DHT22;60111;48.286;7.812;2024-02-26T07:32:39;6.70;90.60
72206;DHT22;60111;48.286;7.812;2024-02-26T07:35:12;6.80;90.60
72206;DHT22;60111;48.286;7.812;2024-02-26T07:37:47;6.90;90.50
72206;DHT22;60111;48.286;7.812;2024-02-26T07:40:18;7.00;90.40
72206;DHT22;60111;48.286;7.812;2024-02-26T07:42:50;7.00;90.40
72206;DHT22;60111;48.286;7.812;2024-02-26T07:45:23;7.10;90.30
72206;DHT22;60111;48.286;7.812;2024-02-26T07:47:56;7.20;90.20
72206;DHT22;60111;48.286;7.812;2024-02-26T07:50:28;7.30;89.80
72206;DHT22;60111;48.286;7.812;2024-02-26T07:53:01;7.30;89.50
72206;DHT22;60111;48.286;7.812;2024-02-26T07:55:33;7.50;89.40
72206;DHT22;60111;48.286;7.812;2024-02-26T07:58:07;7.60;88.90
72206;DHT22;60111;48.286;7.812;2024-02-26T08:00:39;7.70;88.50
72206;DHT22;60111;48.286;7.812;2024-02-26T08:03:12;7.80;88.50
72206;DHT22;60111;48.286;7.812;2024-02-26T08:05:47;7.90;88.10
72206;DHT22;60111;48.286;7.812;2024-02-26T08:08:19;8.10;87.50
72206;DHT22;60111;48.286;7.812;2024-02-26T08:10:52;8.20;85.90
72206;DHT22;60111;48.286;7.812;2024-02-26T08:13:24;8.30;85.10
72206;DHT22;60111;48.286;7.812;2024-02-26T08:15:57;8.40;84.90
72206;DHT22;60111;48.286;7.812;2024-02-26T08:18:30;8.40;84.20
72206;DHT22;60111;48.286;7.812;2024-02-26T08:21:03;8.50;83.20
72206;DHT22;60111;48.286;7.812;2024-02-26T08:23:36;8.40;83.00
72206;DHT22;60111;48.286;7.812;2024-02-26T08:26:08;8.40;83.00
72206;DHT22;60111;48.286;7.812;2024-02-26T08:28:42;8.50;82.60
72206;DHT22;60111;48.286;7.812;2024-02-26T08:31:16;8.50;83.10
72206;DHT22;60111;48.286;7.812;2024-02-26T08:33:48;8.50;82.90
72206;DHT22;60111;48.286;7.812;2024-02-26T08:36:21;8.60;82.50
72206;DHT22;60111;48.286;7.812;2024-02-26T08:38:53;8.60;83.20
72206;DHT22;60111;48.286;7.812;2024-02-26T08:41:26;8.70;83.60
72206;DHT22;60111;48.286;7.812;2024-02-26T08:43:58;8.80;83.00
72206;DHT22;60111;48.286;7.812;2024-02-26T08:46:31;8.90;83.00
72206;DHT22;60111;48.286;7.812;2024-02-26T08:49:04;8.90;81.30
72206;DHT22;60111;48.286;7.812;2024-02-26T08:51:42;8.90;81.60
72206;DHT22;60111;48.286;7.812;2024-02-26T08:54:15;8.90;82.30
72206;DHT22;60111;48.286;7.812;2024-02-26T08:56:48;8.90;82.50
72206;DHT22;60111;48.286;7.812;2024-02-26T08:59:20;8.90;83.50
72206;DHT22;60111;48.286;7.812;2024-02-26T09:01:54;9.00;83.50
72206;DHT22;60111;48.286;7.812;2024-02-26T09:04:27;9.20;81.30
72206;DHT22;60111;48.286;7.812;2024-02-26T09:06:59;9.20;79.80
72206;DHT22;60111;48.286;7.812;2024-02-26T09:09:32;9.30;80.10
72206;DHT22;60111;48.286;7.812;2024-02-26T09:14:58;9.30;80.60
72206;DHT22;60111;48.286;7.812;2024-02-26T09:17:31;9.40;80.30
72206;DHT22;60111;48.286;7.812;2024-02-26T09:20:04;9.50;80.00
72206;DHT22;60111;48.286;7.812;2024-02-26T09:22:37;9.50;80.10
72206;DHT22;60111;48.286;7.812;2024-02-26T09:25:10;9.60;79.90
72206;DHT22;60111;48.286;7.812;2024-02-26T09:27:43;9.70;79.60
72206;DHT22;60111;48.286;7.812;2024-02-26T09:30:16;9.80;79.10
72206;DHT22;60111;48.286;7.812;2024-02-26T09:32:49;9.80;78.40
72206;DHT22;60111;48.286;7.812;2024-02-26T09:35:21;9.90;78.50
72206;DHT22;60111;48.286;7.812;2024-02-26T09:37:54;10.00;78.30
72206;DHT22;60111;48.286;7.812;2024-02-26T09:40:27;10.10;77.70
72206;DHT22;60111;48.286;7.812;2024-02-26T09:43:00;10.20;76.50
72206;DHT22;60111;48.286;7.812;2024-02-26T09:45:33;10.10;77.60
72206;DHT22;60111;48.286;7.812;2024-02-26T09:48:09;10.10;76.70
72206;DHT22;60111;48.286;7.812;2024-02-26T09:50:43;10.20;76.90
72206;DHT22;60111;48.286;7.812;2024-02-26T09:53:17;10.30;77.30
72206;DHT22;60111;48.286;7.812;2024-02-26T09:55:50;10.30;76.80
72206;DHT22;60111;48.286;7.812;2024-02-26T09:58:23;10.40;77.90
72206;DHT22;60111;48.286;7.812;2024-02-26T10:00:57;10.50;78.00
72206;DHT22;60111;48.286;7.812;2024-02-26T10:03:38;10.50;76.90
72206;DHT22;60111;48.286;7.812;2024-02-26T10:06:09;10.50;76.50
72206;DHT22;60111;48.286;7.812;2024-02-26T10:08:42;10.60;76.40
72206;DHT22;60111;48.286;7.812;2024-02-26T10:11:15;10.60;75.80
72206;DHT22;60111;48.286;7.812;2024-02-26T10:13:48;10.60;76.40
72206;DHT22;60111;48.286;7.812;2024-02-26T10:16:21;10.70;77.40
72206;DHT22;60111;48.286;7.812;2024-02-26T10:18:54;10.80;77.20
72206;DHT22;60111;48.286;7.812;2024-02-26T10:21:27;10.80;77.00
72206;DHT22;60111;48.286;7.812;2024-02-26T10:24:00;10.90;76.60
72206;DHT22;60111;48.286;7.812;2024-02-26T10:26:32;11.00;77.10
72206;DHT22;60111;48.286;7.812;2024-02-26T10:29:05;11.10;77.20
72206;DHT22;60111;48.286;7.812;2024-02-26T10:31:37;11.10;76.80
72206;DHT22;60111;48.286;7.812;2024-02-26T10:34:10;11.10;77.20
72206;DHT22;60111;48.286;7.812;2024-02-26T10:36:42;11.10;77.20
72206;DHT22;60111;48.286;7.812;2024-02-26T10:39:15;11.10;77.90
72206;DHT22;60111;48.286;7.812;2024-02-26T10:41:48;11.20;76.40
72206;DHT22;60111;48.286;7.812;2024-02-26T10:44:21;11.20;76.80
72206;DHT22;60111;48.286;7.812;2024-02-26T10:46:53;11.10;76.90
72206;DHT22;60111;48.286;7.812;2024-02-26T10:49:26;11.10;76.30
72206;DHT22;60111;48.286;7.812;2024-02-26T10:51:59;11.10;76.70
72206;DHT22;60111;48.286;7.812;2024-02-26T10:54:33;11.20;76.30
72206;DHT22;60111;48.286;7.812;2024-02-26T10:57:06;11.20;77.20
72206;DHT22;60111;48.286;7.812;2024-02-26T10:59:42;11.30;76.30
72206;DHT22;60111;48.286;7.812;2024-02-26T11:02:15;11.40;75.80
72206;DHT22;60111;48.286;7.812;2024-02-26T11:04:48;11.60;75.60
72206;DHT22;60111;48.286;7.812;2024-02-26T11:07:21;11.70;75.70
72206;DHT22;60111;48.286;7.812;2024-02-26T11:09:55;11.80;74.80
72206;DHT22;60111;48.286;7.812;2024-02-26T11:12:30;11.90;74.40
72206;DHT22;60111;48.286;7.812;2024-02-26T11:15:04;12.00;74.70
72206;DHT22;60111;48.286;7.812;2024-02-26T11:17:37;12.10;75.60
72206;DHT22;60111;48.286;7.812;2024-02-26T11:20:12;12.30;74.60
72206;DHT22;60111;48.286;7.812;2024-02-26T11:22:46;12.40;69.90
72206;DHT22;60111;48.286;7.812;2024-02-26T11:25:19;12.40;71.80
72206;DHT22;60111;48.286;7.812;2024-02-26T11:27:58;12.60;70.70
72206;DHT22;60111;48.286;7.812;2024-02-26T11:30:32;12.60;69.70
72206;DHT22;60111;48.286;7.812;2024-02-26T11:33:08;12.70;70.30
72206;DHT22;60111;48.286;7.812;2024-02-26T11:35:40;12.80;68.50
72206;DHT22;60111;48.286;7.812;2024-02-26T11:38:24;12.90;66.80
72206;DHT22;60111;48.286;7.812;2024-02-26T11:40:58;12.90;66.10
72206;DHT22;60111;48.286;7.812;2024-02-26T11:43:51;13.00;65.70
72206;DHT22;60111;48.286;7.812;2024-02-26T11:46:33;13.00;65.80
72206;DHT22;60111;48.286;7.812;2024-02-26T11:51:59;13.00;63.90
72206;DHT22;60111;48.286;7.812;2024-02-26T11:54:49;13.00;65.20
72206;DHT22;60111;48.286;7.812;2024-02-26T11:57:30;13.00;66.00
72206;DHT22;60111;48.286;7.812;2024-02-26T12:00:12;13.20;66.30
72206;DHT22;60111;48.286;7.812;2024-02-26T12:02:47;13.20;66.20
72206;DHT22;60111;48.286;7.812;2024-02-26T12:05:20;13.20;65.80
72206;DHT22;60111;48.286;7.812;2024-02-26T12:08:00;13.20;66.20
72206;DHT22;60111;48.286;7.812;2024-02-26T12:10:35;13.20;68.00
72206;DHT22;60111;48.286;7.812;2024-02-26T12:13:14;13.10;68.30
72206;DHT22;60111;48.286;7.812;2024-02-26T12:18:27;13.10;68.80
72206;DHT22;60111;48.286;7.812;2024-02-26T12:21:03;13.10;69.70
72206;DHT22;60111;48.286;7.812;2024-02-26T12:23:36;13.10;70.00
72206;DHT22;60111;48.286;7.812;2024-02-26T12:26:09;13.10;69.80
72206;DHT22;60111;48.286;7.812;2024-02-26T12:28:43;13.10;69.40
72206;DHT22;60111;48.286;7.812;2024-02-26T12:31:16;13.00;69.30
72206;DHT22;60111;48.286;7.812;2024-02-26T12:33:49;13.10;68.80
72206;DHT22;60111;48.286;7.812;2024-02-26T12:36:22;13.00;69.30
72206;DHT22;60111;48.286;7.812;2024-02-26T12:38:57;13.00;68.70
72206;DHT22;60111;48.286;7.812;2024-02-26T12:41:31;12.90;68.10
72206;DHT22;60111;48.286;7.812;2024-02-26T12:44:04;12.90;68.30
72206;DHT22;60111;48.286;7.812;2024-02-26T12:46:38;12.90;68.40
72206;DHT22;60111;48.286;7.812;2024-02-26T12:49:17;12.90;68.80
72206;DHT22;60111;48.286;7.812;2024-02-26T12:51:51;13.00;68.70
72206;DHT22;60111;48.286;7.812;2024-02-26T12:54:23;13.10;68.20
72206;DHT22;60111;48.286;7.812;2024-02-26T12:56:56;13.20;68.40
72206;DHT22;60111;48.286;7.812;2024-02-26T12:59:30;13.20;67.90
72206;DHT22;60111;48.286;7.812;2024-02-26T13:02:03;13.20;67.40
72206;DHT22;60111;48.286;7.812;2024-02-26T13:04:37;13.20;67.50
72206;DHT22;60111;48.286;7.812;2024-02-26T13:07:10;13.10;67.80
72206;DHT22;60111;48.286;7.812;2024-02-26T13:09:43;13.10;67.70
72206;DHT22;60111;48.286;7.812;2024-02-26T13:12:17;13.20;68.10
72206;DHT22;60111;48.286;7.812;2024-02-26T13:15:03;13.10;67.60
72206;DHT22;60111;48.286;7.812;2024-02-26T13:17:36;13.10;68.30
72206;DHT22;60111;48.286;7.812;2024-02-26T13:20:10;13.10;67.20
72206;DHT22;60111;48.286;7.812;2024-02-26T13:22:42;13.10;67.60
72206;DHT22;60111;48.286;7.812;2024-02-26T13:25:20;13.10;67.70
72206;DHT22;60111;48.286;7.812;2024-02-26T13:27:51;13.10;68.70
72206;DHT22;60111;48.286;7.812;2024-02-26T13:30:24;13.20;68.50
72206;DHT22;60111;48.286;7.812;2024-02-26T13:33:09;13.20;68.30
72206;DHT22;60111;48.286;7.812;2024-02-26T13:35:33;13.20;68.00
72206;DHT22;60111;48.286;7.812;2024-02-26T13:38:06;13.30;68.50
72206;DHT22;60111;48.286;7.812;2024-02-26T13:40:39;13.40;67.90
72206;DHT22;60111;48.286;7.812;2024-02-26T13:43:12;13.40;67.40
72206;DHT22;60111;48.286;7.812;2024-02-26T13:45:46;13.50;67.80
72206;DHT22;60111;48.286;7.812;2024-02-26T13:48:19;13.40;67.70
72206;DHT22;60111;48.286;7.812;2024-02-26T13:50:51;13.50;66.70
72206;DHT22;60111;48.286;7.812;2024-02-26T13:53:24;13.50;66.40
72206;DHT22;60111;48.286;7.812;2024-02-26T13:55:57;13.50;66.30
72206;DHT22;60111;48.286;7.812;2024-02-26T13:58:31;13.40;66.30
72206;DHT22;60111;48.286;7.812;2024-02-26T14:01:03;13.30;67.70
72206;DHT22;60111;48.286;7.812;2024-02-26T14:03:37;13.20;68.10
72206;DHT22;60111;48.286;7.812;2024-02-26T14:06:09;13.20;68.90
72206;DHT22;60111;48.286;7.812;2024-02-26T14:08:42;13.10;69.00
72206;DHT22;60111;48.286;7.812;2024-02-26T14:11:15;13.10;70.00
72206;DHT22;60111;48.286;7.812;2024-02-26T14:13:48;13.20;69.80
72206;DHT22;60111;48.286;7.812;2024-02-26T14:16:21;13.20;70.30
72206;DHT22;60111;48.286;7.812;2024-02-26T14:18:53;13.20;69.90
72206;DHT22;60111;48.286;7.812;2024-02-26T14:21:26;13.20;70.10
72206;DHT22;60111;48.286;7.812;2024-02-26T14:23:59;13.20;69.40
72206;DHT22;60111;48.286;7.812;2024-02-26T14:26:31;13.20;69.40
72206;DHT22;60111;48.286;7.812;2024-02-26T14:29:04;13.20;69.40
72206;DHT22;60111;48.286;7.812;2024-02-26T14:31:37;13.30;69.80
72206;DHT22;60111;48.286;7.812;2024-02-26T14:34:10;13.20;69.60
72206;DHT22;60111;48.286;7.812;2024-02-26T14:36:42;13.20;70.10
72206;DHT22;60111;48.286;7.812;2024-02-26T14:39:16;13.20;69.80
72206;DHT22;60111;48.286;7.812;2024-02-26T14:41:48;13.20;70.10
72206;DHT22;60111;48.286;7.812;2024-02-26T14:44:21;13.20;70.40
72206;DHT22;60111;48.286;7.812;2024-02-26T14:46:53;13.30;69.50
72206;DHT22;60111;48.286;7.812;2024-02-26T14:49:26;13.30;69.60
72206;DHT22;60111;48.286;7.812;2024-02-26T14:51:59;13.30;69.40
72206;DHT22;60111;48.286;7.812;2024-02-26T14:54:31;13.20;69.70
72206;DHT22;60111;48.286;7.812;2024-02-26T14:57:06;13.20;69.40
72206;DHT22;60111;48.286;7.812;2024-02-26T14:59:39;13.30;69.10
72206;DHT22;60111;48.286;7.812;2024-02-26T15:02:12;13.30;69.60
72206;DHT22;60111;48.286;7.812;2024-02-26T15:04:44;13.40;69.30
72206;DHT22;60111;48.286;7.812;2024-02-26T15:07:18;13.40;69.60
72206;DHT22;60111;48.286;7.812;2024-02-26T15:09:52;13.40;68.80
72206;DHT22;60111;48.286;7.812;2024-02-26T15:12:25;13.30;69.40
72206;DHT22;60111;48.286;7.812;2024-02-26T15:14:59;13.30;69.50
72206;DHT22;60111;48.286;7.812;2024-02-26T15:17:32;13.20;69.10
72206;DHT22;60111;48.286;7.812;2024-02-26T15:20:07;13.20;69.20
72206;DHT22;60111;48.286;7.812;2024-02-26T15:22:42;13.20;69.10
72206;DHT22;60111;48.286;7.812;2024-02-26T15:25:14;13.10;69.60
72206;DHT22;60111;48.286;7.812;2024-02-26T15:27:48;13.10;69.90
72206;DHT22;60111;48.286;7.812;2024-02-26T15:30:20;13.00;70.40
72206;DHT22;60111;48.286;7.812;2024-02-26T15:32:53;13.10;70.10
72206;DHT22;60111;48.286;7.812;2024-02-26T15:35:25;13.10;70.10
72206;DHT22;60111;48.286;7.812;2024-02-26T15:37:58;13.00;70.30
72206;DHT22;60111;48.286;7.812;2024-02-26T15:40:31;13.00;70.30
72206;DHT22;60111;48.286;7.812;2024-02-26T15:43:03;13.10;70.10
72206;DHT22;60111;48.286;7.812;2024-02-26T15:45:36;13.10;70.40
72206;DHT22;60111;48.286;7.812;2024-02-26T15:48:09;13.20;69.70
72206;DHT22;60111;48.286;7.812;2024-02-26T15:50:41;13.20;69.20
72206;DHT22;60111;48.286;7.812;2024-02-26T15:53:14;13.20;70.00
72206;DHT22;60111;48.286;7.812;2024-02-26T15:55:46;13.30;69.60
72206;DHT22;60111;48.286;7.812;2024-02-26T15:58:19;13.30;69.00
72206;DHT22;60111;48.286;7.812;2024-02-26T16:00:52;13.40;68.90
72206;DHT22;60111;48.286;7.812;2024-02-26T16:03:24;13.40;68.30
72206;DHT22;60111;48.286;7.812;2024-02-26T16:05:57;13.50;68.20
72206;DHT22;60111;48.286;7.812;2024-02-26T16:08:29;13.60;68.20
72206;DHT22;60111;48.286;7.812;2024-02-26T16:11:02;13.70;68.00
72206;DHT22;60111;48.286;7.812;2024-02-26T16:13:35;13.70;67.50
72206;DHT22;60111;48.286;7.812;2024-02-26T16:16:17;13.70;67.60
72206;DHT22;60111;48.286;7.812;2024-02-26T16:18:49;13.60;67.30
72206;DHT22;60111;48.286;7.812;2024-02-26T16:21:22;13.50;67.70
72206;DHT22;60111;48.286;7.812;2024-02-26T16:23:54;13.40;68.00
72206;DHT22;60111;48.286;7.812;2024-02-26T16:26:27;13.30;68.30